Time;durP1;ratioP1;P1;durP2;ratioP2;P2;SDS_P1;SDS_P2;PMS_P1;PMS_P2;Temp;Humidity;BMP_temperature;BMP_pressure;BME280_temperature;BME280_humidity;BME280_pressure;Samples;Min_cycle;Max_cycle;Signal;HPM_P1;HPM_P2
2023/05/27 00:01:46;;;;;;;11.02;8.70;;;;;;;14.61;100.00;96201.09;5129037;27;20030;-77
2023/05/27 00:04:11;;;;;;;10.32;9.25;;;;;;;14.58;100.00;96204.06;5130864;27;20050;-77
2023/05/27 00:06:36;;;;;;;9.90;8.90;;;;;;;14.55;100.00;96200.88;5116943;28;20031;-78
2023/05/27 00:09:02;;;;;;;9.45;8.48;;;;;;;14.54;100.00;96202.72;5129411;27;20027;-77
2023/05/27 00:11:27;;;;;;;9.32;8.40;;;;;;;14.56;100.00;96205.19;5146355;27;20019;-77
2023/05/27 00:13:53;;;;;;;9.93;8.93;;;;;;;14.52;100.00;96212.63;5124702;27;20039;-78
2023/05/27 00:16:19;;;;;;;10.40;9.40;;;;;;;14.54;100.00;96215.97;5118356;27;20488;-78
2023/05/27 00:18:47;;;;;;;9.57;8.60;;;;;;;14.55;100.00;96220.25;5123728;27;20085;-78
2023/05/27 00:21:13;;;;;;;9.98;8.95;;;;;;;14.55;100.00;96233.50;5136936;27;20020;-77
2023/05/27 00:23:38;;;;;;;9.40;8.60;;;;;;;14.55;100.00;96225.56;5123048;27;20031;-77
2023/05/27 00:26:04;;;;;;;9.30;8.45;;;;;;;14.57;100.00;96234.19;5124309;27;20476;-77
2023/05/27 00:28:31;;;;;;;9.35;8.48;;;;;;;14.54;100.00;96231.84;5131751;27;20032;-77
2023/05/27 00:30:57;;;;;;;9.85;8.93;;;;;;;14.53;100.00;96246.09;5118614;27;20019;-78
2023/05/27 00:33:23;;;;;;;8.98;8.15;;;;;;;14.50;100.00;96242.91;5130998;27;20019;-78
2023/05/27 00:35:48;;;;;;;9.68;8.98;;;;;;;14.47;100.00;96242.22;5127248;27;20027;-78
2023/05/27 00:38:13;;;;;;;10.57;9.57;;;;;;;14.39;100.00;96236.88;5126888;27;20028;-78
2023/05/27 00:40:40;;;;;;;10.20;9.23;;;;;;;14.37;100.00;96235.34;5117303;28;20016;-78
2023/05/27 00:43:06;;;;;;;10.43;9.43;;;;;;;14.38;100.00;96231.72;5116324;27;20027;-78
2023/05/27 00:45:32;;;;;;;10.93;9.30;;;;;;;14.33;100.00;96240.09;5098412;28;20061;-78
2023/05/27 00:47:59;;;;;;;11.70;9.95;;;;;;;14.35;100.00;96232.00;5118804;27;20022;-78
2023/05/27 00:50:26;;;;;;;9.73;8.93;;;;;;;14.33;100.00;96224.22;5121788;27;20024;-77
2023/05/27 00:52:55;;;;;;;10.25;9.35;;;;;;;14.29;100.00;96231.66;5130755;27;20481;-78
2023/05/27 00:55:21;;;;;;;9.90;8.98;;;;;;;14.23;100.00;96229.59;5132793;27;20026;-77
2023/05/27 00:57:47;;;;;;;10.63;9.73;;;;;;;14.21;100.00;96236.84;5123812;27;20089;-77
2023/05/27 01:00:13;;;;;;;10.23;9.00;;;;;;;14.18;100.00;96237.16;5120875;27;20015;-77
2023/05/27 01:02:42;;;;;;;9.40;8.70;;;;;;;14.13;100.00;96227.00;5120795;27;20024;-76
2023/05/27 01:05:14;;;;;;;9.27;8.45;;;;;;;14.14;100.00;96230.50;5116831;28;20107;-77
2023/05/27 01:07:57;;;;;;;10.25;9.43;;;;;;;14.10;100.00;96227.31;5130092;27;20106;-77
2023/05/27 01:10:45;;;;;;;10.30;9.30;;;;;;;14.00;100.00;96237.97;5123927;27;20030;-77
2023/05/27 01:13:27;;;;;;;8.95;8.05;;;;;;;14.02;100.00;96233.34;5122730;27;20027;-77
2023/05/27 01:15:54;;;;;;;9.52;8.63;;;;;;;14.04;100.00;96236.72;5125035;27;20043;-77
2023/05/27 01:18:22;;;;;;;9.65;8.65;;;;;;;14.02;100.00;96241.31;5129749;27;20030;-76
2023/05/27 01:20:51;;;;;;;10.68;9.65;;;;;;;13.98;100.00;96241.78;5123865;27;20383;-77
2023/05/27 01:23:17;;;;;;;10.07;9.18;;;;;;;13.91;100.00;96238.88;5115529;27;20062;-77
2023/05/27 01:25:42;;;;;;;10.35;9.32;;;;;;;13.91;100.00;96233.59;5122923;27;20021;-77
2023/05/27 01:28:08;;;;;;;10.70;8.85;;;;;;;13.92;100.00;96229.13;5124886;27;20047;-76
2023/05/27 01:30:33;;;;;;;9.88;8.90;;;;;;;13.90;100.00;96231.94;5132930;27;20022;-77
2023/05/27 01:33:07;;;;;;;9.20;8.13;;;;;;;13.85;100.00;96223.63;5124143;27;20073;-74
2023/05/27 01:35:49;;;;;;;10.20;9.20;;;;;;;13.80;100.00;96225.84;5119230;27;20023;-77
2023/05/27 01:38:17;;;;;;;9.18;8.35;;;;;;;13.72;100.00;96229.25;5123654;27;20122;-76
2023/05/27 01:40:45;;;;;;;9.82;8.93;;;;;;;13.68;100.00;96231.38;5114921;27;20044;-77
2023/05/27 01:43:11;;;;;;;10.13;9.07;;;;;;;13.66;100.00;96229.84;5115349;27;20023;-77
2023/05/27 01:45:37;;;;;;;10.13;9.23;;;;;;;13.65;100.00;96228.16;5127700;27;20048;-76
2023/05/27 01:48:03;;;;;;;9.98;9.00;;;;;;;13.63;100.00;96230.97;5116103;28;20024;-78
2023/05/27 01:50:30;;;;;;;10.30;9.40;;;;;;;13.57;100.00;96234.19;5119709;27;20585;-77
2023/05/27 01:52:56;;;;;;;9.73;8.60;;;;;;;13.60;100.00;96231.28;5127799;27;20027;-77
2023/05/27 01:55:22;;;;;;;11.93;9.20;;;;;;;13.57;100.00;96228.91;5133123;27;20027;-77
2023/05/27 01:57:47;;;;;;;9.07;8.07;;;;;;;13.55;100.00;96231.72;5134159;27;20498;-77
2023/05/27 02:00:13;;;;;;;10.63;9.25;;;;;;;13.53;100.00;96227.53;5128437;27;20726;-77
2023/05/27 02:02:38;;;;;;;11.20;9.80;;;;;;;13.50;100.00;96236.63;5126562;27;20023;-76
2023/05/27 02:05:04;;;;;;;9.98;9.23;;;;;;;13.49;100.00;96234.97;5119554;27;20020;-76
2023/05/27 02:07:29;;;;;;;10.13;9.13;;;;;;;13.49;100.00;96240.25;5115981;27;20023;-76
2023/05/27 02:09:55;;;;;;;10.15;9.20;;;;;;;13.47;100.00;96244.81;5112788;28;20020;-76
2023/05/27 02:12:20;;;;;;;10.27;9.38;;;;;;;13.45;100.00;96245.00;5110035;27;20546;-76
2023/05/27 02:14:46;;;;;;;10.32;8.82;;;;;;;13.44;100.00;96239.84;5129937;27;20030;-76
2023/05/27 02:17:14;;;;;;;11.85;9.65;;;;;;;13.44;100.00;96248.63;5115843;28;20422;-76
2023/05/27 02:19:40;;;;;;;9.65;8.52;;;;;;;13.39;100.00;96250.00;5119684;27;20019;-76
2023/05/27 02:22:05;;;;;;;10.32;9.43;;;;;;;13.36;100.00;96251.09;5128711;27;20064;-76
2023/05/27 02:24:31;;;;;;;10.25;9.25;;;;;;;13.29;100.00;96252.66;5115596;27;20024;-76
2023/05/27 02:26:56;;;;;;;10.13;9.32;;;;;;;13.26;100.00;96259.09;5117123;27;20028;-76
2023/05/27 02:29:21;;;;;;;10.52;9.70;;;;;;;13.25;100.00;96261.88;5114592;28;20019;-76
2023/05/27 02:31:47;;;;;;;11.02;9.93;;;;;;;13.23;100.00;96274.41;5098139;28;20019;-76
2023/05/27 02:34:12;;;;;;;11.77;10.75;;;;;;;13.23;100.00;96271.78;5116440;28;20027;-76
2023/05/27 02:36:38;;;;;;;11.50;10.15;;;;;;;13.20;100.00;96277.34;5114949;28;20034;-76
2023/05/27 02:39:04;;;;;;;11.30;9.70;;;;;;;13.17;100.00;96276.66;5121801;28;20016;-76
2023/05/27 02:41:29;;;;;;;10.25;9.35;;;;;;;13.16;100.00;96280.28;5121942;27;20498;-76
2023/05/27 02:43:55;;;;;;;11.75;9.00;;;;;;;13.14;100.00;96271.63;5118888;28;20407;-76
2023/05/27 02:46:20;;;;;;;12.23;8.82;;;;;;;13.15;100.00;96275.97;5129964;27;20045;-76
2023/05/27 02:48:46;;;;;;;11.07;9.75;;;;;;;13.13;100.00;96274.44;5134115;27;20027;-75
2023/05/27 02:51:12;;;;;;;10.18;9.32;;;;;;;13.12;100.00;96278.06;5120775;27;20455;-76
2023/05/27 02:53:37;;;;;;;10.77;9.77;;;;;;;13.10;100.00;96275.53;5136690;27;20019;-76
2023/05/27 02:56:03;;;;;;;10.32;9.50;;;;;;;13.02;100.00;96265.69;5130347;27;20098;-76
2023/05/27 02:58:28;;;;;;;11.45;10.27;;;;;;;13.08;100.00;96279.34;5130940;27;20027;-76
2023/05/27 03:00:54;;;;;;;11.38;10.38;;;;;;;13.09;100.00;96278.34;5129375;27;20051;-76
2023/05/27 03:03:20;;;;;;;11.05;9.82;;;;;;;13.09;100.00;96281.81;5131175;27;20106;-76
2023/05/27 03:05:45;;;;;;;11.65;9.93;;;;;;;13.04;100.00;96282.25;5121496;27;20110;-76
2023/05/27 03:08:11;;;;;;;15.77;9.73;;;;;;;12.97;100.00;96285.63;5128589;27;20437;-76
2023/05/27 03:10:36;;;;;;;11.98;9.57;;;;;;;12.98;100.00;96287.28;5121623;27;20096;-76
2023/05/27 03:13:02;;;;;;;10.70;9.90;;;;;;;12.95;100.00;96277.00;5147596;27;20077;-78
2023/05/27 03:15:31;;;;;;;10.15;9.35;;;;;;;12.92;100.00;96279.91;5127317;27;20019;-76
2023/05/27 03:17:57;;;;;;;12.38;10.63;;;;;;;12.86;100.00;96279.50;5119197;27;20019;-76
2023/05/27 03:20:22;;;;;;;10.55;9.55;;;;;;;12.83;100.00;96281.59;5127031;27;20019;-76
2023/05/27 03:22:48;;;;;;;10.02;9.13;;;;;;;12.80;100.00;96280.06;5134846;27;20019;-76
2023/05/27 03:25:14;;;;;;;10.82;9.90;;;;;;;12.79;100.00;96294.25;5118755;28;20126;-76
2023/05/27 03:27:40;;;;;;;10.63;9.73;;;;;;;12.71;100.00;96289.69;5127330;27;20420;-76
2023/05/27 03:30:07;;;;;;;10.65;9.65;;;;;;;12.67;100.00;96290.09;5130639;27;20031;-76
2023/05/27 03:32:33;;;;;;;10.35;9.25;;;;;;;12.67;100.00;96292.72;5124607;27;20031;-76
2023/05/27 03:34:58;;;;;;;10.15;9.20;;;;;;;12.68;100.00;96299.69;5123152;27;20016;-76
2023/05/27 03:37:24;;;;;;;10.60;9.00;;;;;;;12.66;100.00;96304.28;5132333;27;20020;-76
2023/05/27 03:39:49;;;;;;;10.07;9.07;;;;;;;12.67;100.00;96300.66;5100666;27;20107;-76
2023/05/27 03:42:15;;;;;;;10.85;9.48;;;;;;;12.65;100.00;96292.03;5120974;27;20027;-76
2023/05/27 03:44:40;;;;;;;10.27;9.32;;;;;;;12.65;100.00;96294.69;5120218;27;20073;-76
2023/05/27 03:47:06;;;;;;;10.65;9.57;;;;;;;12.65;100.00;96294.69;5123988;27;20131;-76
2023/05/27 03:49:31;;;;;;;10.48;9.60;;;;;;;12.59;100.00;96294.28;5118495;27;20028;-76
2023/05/27 03:51:57;;;;;;;11.65;10.27;;;;;;;12.53;100.00;96289.56;5122672;27;20180;-76
2023/05/27 03:54:22;;;;;;;10.75;9.80;;;;;;;12.52;100.00;96279.97;5135997;27;20821;-76
2023/05/27 03:56:48;;;;;;;10.35;9.43;;;;;;;12.54;100.00;96283.31;5123472;27;20031;-76
2023/05/27 03:59:14;;;;;;;9.75;8.95;;;;;;;12.52;100.00;96285.25;5117532;27;20039;-76
2023/05/27 04:01:39;;;;;;;10.70;9.80;;;;;;;12.55;100.00;96292.03;5132077;27;20023;-76
2023/05/27 04:04:05;;;;;;;10.55;9.63;;;;;;;12.57;100.00;96285.66;5120034;27;20092;-76
2023/05/27 04:06:31;;;;;;;10.77;9.90;;;;;;;12.55;100.00;96292.88;5117368;27;20019;-76
2023/05/27 04:08:57;;;;;;;12.25;10.98;;;;;;;12.51;100.00;96285.38;5123354;27;20083;-76
2023/05/27 04:11:23;;;;;;;12.02;10.55;;;;;;;12.49;100.00;96284.69;5137344;27;20511;-76
2023/05/27 04:13:49;;;;;;;12.45;11.15;;;;;;;12.45;100.00;96289.41;5134454;27;20019;-76
2023/05/27 04:16:15;;;;;;;10.68;9.82;;;;;;;12.46;100.00;96289.28;5121901;27;20380;-76
2023/05/27 04:18:41;;;;;;;10.70;9.90;;;;;;;12.49;100.00;96289.97;5126532;27;20030;-76
2023/05/27 04:21:08;;;;;;;10.80;9.80;;;;;;;12.45;100.00;96287.59;5120585;27;20454;-76
2023/05/27 04:23:33;;;;;;;9.68;8.88;;;;;;;12.45;100.00;96284.13;5126416;27;20070;-76
2023/05/27 04:25:59;;;;;;;10.02;9.20;;;;;;;12.44;100.00;96285.94;5128179;27;20019;-75
2023/05/27 04:28:24;;;;;;;10.90;9.68;;;;;;;12.43;100.00;96284.28;5125746;27;20015;-76
2023/05/27 04:30:50;;;;;;;10.10;9.30;;;;;;;12.48;100.00;96283.03;5120740;27;20182;-76
2023/05/27 04:33:16;;;;;;;10.43;9.63;;;;;;;12.47;100.00;96282.16;5125255;27;20023;-76
2023/05/27 04:35:43;;;;;;;10.23;9.32;;;;;;;12.41;100.00;96290.66;5122478;27;20447;-76
2023/05/27 04:38:10;;;;;;;10.43;9.52;;;;;;;12.38;100.00;96285.66;5124111;27;20030;-76
2023/05/27 04:40:36;;;;;;;10.68;9.80;;;;;;;12.38;100.00;96290.94;5127767;27;20019;-76
2023/05/27 04:43:01;;;;;;;12.10;10.07;;;;;;;12.41;100.00;96290.66;5128947;27;20019;-76
2023/05/27 04:45:29;;;;;;;11.20;10.20;;;;;;;12.42;100.00;96293.16;5124041;27;20027;-76
2023/05/27 04:47:55;;;;;;;11.63;10.48;;;;;;;12.48;100.00;96296.22;5126412;27;20110;-76
2023/05/27 04:50:21;;;;;;;10.57;9.57;;;;;;;12.55;100.00;96298.16;5123562;27;20023;-76
2023/05/27 04:52:46;;;;;;;9.50;8.57;;;;;;;12.54;100.00;96296.50;5133326;27;20071;-76
2023/05/27 04:55:11;;;;;;;11.85;9.10;;;;;;;12.55;100.00;96297.31;5113249;27;20431;-75
2023/05/27 04:57:40;;;;;;;10.45;9.32;;;;;;;12.59;100.00;96290.78;5124865;27;20398;-76
2023/05/27 05:02:35;;;;;;;10.88;9.93;;;;;;;12.67;100.00;96300.66;5130033;27;20047;-76
2023/05/27 05:05:11;;;;;;;10.48;9.30;;;;;;;12.66;100.00;96294.56;5120656;27;20038;-76
2023/05/27 05:07:39;;;;;;;10.43;9.52;;;;;;;12.66;100.00;96297.19;5123109;27;20110;-76
2023/05/27 05:10:07;;;;;;;10.48;9.65;;;;;;;12.70;100.00;96300.38;5116003;27;20106;-76
2023/05/27 05:12:32;;;;;;;10.05;9.07;;;;;;;12.75;100.00;96308.72;5139173;27;20052;-75
2023/05/27 05:14:58;;;;;;;13.43;10.63;;;;;;;12.88;100.00;96301.31;5116742;27;20543;-76
2023/05/27 05:17:24;;;;;;;11.48;10.07;;;;;;;13.04;100.00;96305.19;5116326;27;20019;-76
2023/05/27 05:19:51;;;;;;;12.20;9.90;;;;;;;13.18;100.00;96304.75;5130954;27;20107;-76
2023/05/27 05:22:20;;;;;;;10.82;9.55;;;;;;;13.28;100.00;96310.03;5116565;28;20032;-76
2023/05/27 05:24:46;;;;;;;12.10;10.90;;;;;;;13.40;100.00;96313.34;5117235;27;20540;-76
2023/05/27 05:27:12;;;;;;;11.27;10.13;;;;;;;13.50;100.00;96309.84;5124619;27;20035;-75
2023/05/27 05:29:37;;;;;;;12.80;11.50;;;;;;;13.57;100.00;96303.81;5116352;28;20035;-75
2023/05/27 05:32:03;;;;;;;11.77;10.57;;;;;;;13.69;100.00;96301.81;5124966;27;20387;-76
2023/05/27 05:34:29;;;;;;;13.90;12.50;;;;;;;13.83;100.00;96297.03;5114892;28;20039;-75
2023/05/27 05:36:54;;;;;;;11.07;9.98;;;;;;;13.97;100.00;96303.63;5116271;27;20567;-75
2023/05/27 05:39:20;;;;;;;10.82;9.73;;;;;;;14.08;100.00;96303.41;5117169;27;20028;-76
2023/05/27 05:41:46;;;;;;;9.35;8.45;;;;;;;14.25;100.00;96307.06;5128331;27;20053;-75
2023/05/27 05:44:12;;;;;;;9.30;8.57;;;;;;;14.37;100.00;96293.63;5129409;27;20023;-76
2023/05/27 05:46:37;;;;;;;9.52;8.60;;;;;;;14.43;100.00;96288.56;5122905;27;20100;-75
2023/05/27 05:49:03;;;;;;;9.00;8.30;;;;;;;14.52;100.00;96293.91;5130654;27;20039;-75
2023/05/27 05:51:29;;;;;;;8.82;8.02;;;;;;;14.60;100.00;96289.53;5131708;27;20023;-75
2023/05/27 05:53:54;;;;;;;10.05;8.40;;;;;;;14.69;100.00;96292.22;5133668;27;20023;-75
2023/05/27 05:56:21;;;;;;;10.68;8.18;;;;;;;14.75;100.00;96289.84;5135085;27;20034;-75
2023/05/27 05:58:47;;;;;;;8.73;7.97;;;;;;;14.86;100.00;96286.09;5122454;27;20108;-76
2023/05/27 06:01:12;;;;;;;8.88;7.97;;;;;;;14.97;100.00;96279.72;5117328;27;20473;-74
2023/05/27 06:03:38;;;;;;;9.15;7.47;;;;;;;15.09;100.00;96287.44;5120163;27;20073;-75
2023/05/27 06:06:03;;;;;;;9.10;8.20;;;;;;;15.21;100.00;96285.34;5135921;27;20072;-76
2023/05/27 06:08:28;;;;;;;9.05;8.13;;;;;;;15.29;100.00;96278.28;5132288;27;20030;-75
2023/05/27 06:10:54;;;;;;;8.95;8.18;;;;;;;15.43;100.00;96274.22;5124349;27;20035;-75
2023/05/27 06:13:19;;;;;;;8.20;7.30;;;;;;;15.59;100.00;96272.63;5123372;27;20043;-75
2023/05/27 06:15:45;;;;;;;8.23;7.55;;;;;;;15.75;100.00;96271.88;5118643;27;20065;-75
2023/05/27 06:18:11;;;;;;;8.82;7.80;;;;;;;15.90;100.00;96267.59;5128494;27;20115;-75
2023/05/27 06:20:36;;;;;;;9.00;8.13;;;;;;;16.03;100.00;96261.03;5112946;28;20016;-75
2023/05/27 06:23:02;;;;;;;7.88;7.18;;;;;;;16.26;100.00;96255.94;5115135;28;20019;-74
2023/05/27 06:25:28;;;;;;;8.57;7.28;;;;;;;16.54;100.00;96255.63;5116038;27;20035;-75
2023/05/27 06:27:53;;;;;;;8.32;7.38;;;;;;;16.68;100.00;96253.28;5133078;27;20030;-75
2023/05/27 06:30:19;;;;;;;8.05;7.25;;;;;;;16.88;100.00;96256.44;5122878;27;20078;-75
2023/05/27 06:32:45;;;;;;;10.45;6.97;;;;;;;17.03;100.00;96246.81;5125856;28;20031;-75
2023/05/27 06:35:10;;;;;;;7.70;7.00;;;;;;;17.28;100.00;96241.44;5112830;28;20028;-75
2023/05/27 06:37:35;;;;;;;7.53;6.80;;;;;;;17.49;100.00;96237.38;5137413;27;20023;-76
2023/05/27 06:40:01;;;;;;;8.73;6.85;;;;;;;17.70;100.00;96226.13;5117652;28;20016;-76
2023/05/27 06:42:27;;;;;;;8.38;6.68;;;;;;;17.86;100.00;96221.72;5120069;28;20437;-76
2023/05/27 06:44:52;;;;;;;9.45;6.10;;;;;;;18.18;100.00;96217.22;5127158;27;20042;-76
2023/05/27 06:47:18;;;;;;;9.07;5.70;;;;;;;18.56;100.00;96209.28;5128989;27;20135;-76
2023/05/27 06:49:44;;;;;;;6.45;5.85;;;;;;;18.92;100.00;96204.31;5122321;28;20027;-75
2023/05/27 06:52:09;;;;;;;7.10;6.05;;;;;;;19.41;100.00;96203.81;5116303;28;20114;-77
2023/05/27 06:54:38;;;;;;;6.47;5.63;;;;;;;19.68;100.00;96192.63;5109013;28;20027;-75
2023/05/27 06:57:03;;;;;;;7.93;5.57;;;;;;;20.05;100.00;96185.47;5118055;27;20103;-76
2023/05/27 06:59:29;;;;;;;6.93;5.75;;;;;;;20.29;100.00;96176.25;5120566;28;20495;-76
2023/05/27 07:01:56;;;;;;;8.45;5.78;;;;;;;20.60;100.00;96161.69;5107219;28;20257;-76
2023/05/27 07:04:22;;;;;;;8.13;5.30;;;;;;;20.86;100.00;96162.13;5121169;27;20032;-76
2023/05/27 07:06:47;;;;;;;9.65;5.45;;;;;;;21.05;100.00;96165.94;5116545;27;20372;-76
2023/05/27 07:09:13;;;;;;;5.97;5.32;;;;;;;21.21;100.00;96148.72;5125871;28;20398;-75
2023/05/27 07:11:39;;;;;;;7.63;5.07;;;;;;;21.32;100.00;96150.00;5122016;27;20044;-76
2023/05/27 07:14:05;;;;;;;6.30;5.40;;;;;;;21.64;100.00;96146.84;5133236;27;20059;-76
2023/05/27 07:16:30;;;;;;;6.70;5.30;;;;;;;21.69;100.00;96139.88;5118928;28;20027;-76
2023/05/27 07:18:56;;;;;;;9.15;5.20;;;;;;;21.79;100.00;96134.16;5123290;28;20099;-76
2023/05/27 07:21:21;;;;;;;9.32;5.78;;;;;;;21.92;100.00;96133.34;5118117;28;20012;-75
2023/05/27 07:23:47;;;;;;;6.45;5.90;;;;;;;22.07;100.00;96127.81;5122695;28;20518;-75
2023/05/27 07:26:12;;;;;;;8.35;5.22;;;;;;;22.16;100.00;96123.06;5120299;28;20396;-75
2023/05/27 07:28:38;;;;;;;7.60;6.43;;;;;;;22.52;100.00;96118.38;5124604;28;20035;-74
2023/05/27 07:31:04;;;;;;;6.47;5.88;;;;;;;22.61;100.00;96109.91;5114490;28;20023;-75
2023/05/27 07:33:30;;;;;;;8.52;6.22;;;;;;;22.70;100.00;96101.66;5131462;27;20019;-76
2023/05/27 07:35:56;;;;;;;8.48;6.28;;;;;;;22.86;100.00;96098.50;5142548;27;20025;-75
2023/05/27 07:38:21;;;;;;;6.85;6.18;;;;;;;23.17;100.00;96094.31;5129018;27;20032;-75
2023/05/27 07:40:47;;;;;;;6.53;5.90;;;;;;;23.27;100.00;96090.34;5122318;27;20024;-75
2023/05/27 07:43:13;;;;;;;6.97;5.97;;;;;;;23.39;100.00;96090.53;5116795;27;20024;-74
2023/05/27 07:45:38;;;;;;;6.25;5.68;;;;;;;23.26;100.00;96088.72;5127128;27;20112;-76
2023/05/27 07:48:03;;;;;;;8.18;5.93;;;;;;;23.53;100.00;96078.69;5118578;27;20476;-75
2023/05/27 07:50:29;;;;;;;8.50;5.85;;;;;;;23.65;100.00;96075.28;5130042;27;20418;-75
2023/05/27 07:52:54;;;;;;;9.32;5.95;;;;;;;23.99;100.00;96075.91;5134131;27;20027;-74
2023/05/27 07:55:20;;;;;;;11.10;6.07;;;;;;;24.03;100.00;96067.25;5123510;27;20647;-76
2023/05/27 07:57:45;;;;;;;8.32;5.40;;;;;;;24.05;100.00;96068.88;5132072;27;20045;-76
2023/05/27 08:00:11;;;;;;;6.88;5.93;;;;;;;24.23;100.00;96052.81;5123026;27;20035;-75
2023/05/27 08:02:37;;;;;;;8.75;6.03;;;;;;;24.15;100.00;96055.75;5131123;27;20408;-76
2023/05/27 08:05:03;;;;;;;10.98;6.03;;;;;;;24.64;100.00;96055.13;5110205;27;20071;-75
2023/05/27 08:07:30;;;;;;;6.75;5.75;;;;;;;24.58;100.00;96049.59;5126179;27;20031;-75
2023/05/27 08:09:55;;;;;;;7.22;5.38;;;;;;;24.98;100.00;96048.38;5122547;27;20111;-76
2023/05/27 08:12:21;;;;;;;8.27;5.53;;;;;;;24.80;100.00;96043.78;5100268;27;20087;-76
2023/05/27 08:14:47;;;;;;;6.78;5.40;;;;;;;24.73;100.00;96043.03;5122639;27;20032;-75
2023/05/27 08:17:12;;;;;;;6.30;5.72;;;;;;;25.04;100.00;96033.16;5118937;27;20055;-76
2023/05/27 08:19:37;;;;;;;8.93;5.80;;;;;;;25.06;100.00;96017.59;5120611;27;20491;-76
2023/05/27 08:22:03;;;;;;;6.90;5.30;;;;;;;25.23;100.00;96025.91;5122442;27;20023;-75
2023/05/27 08:24:30;;;;;;;9.50;5.85;;;;;;;25.49;100.00;96017.72;5124374;27;20019;-76
2023/05/27 08:26:57;;;;;;;9.90;5.75;;;;;;;25.70;100.00;96009.09;5122877;27;20486;-75
2023/05/27 08:29:22;;;;;;;6.82;5.38;;;;;;;25.33;100.00;96001.13;5123720;27;20032;-75
2023/05/27 08:31:51;;;;;;;11.57;5.43;;;;;;;25.22;100.00;96004.56;5115348;27;20245;-76
2023/05/27 08:34:17;;;;;;;6.25;5.07;;;;;;;25.54;100.00;96007.09;5119351;27;20028;-76
2023/05/27 08:36:42;;;;;;;6.15;5.55;;;;;;;25.29;100.00;96002.59;5130653;27;20081;-76
2023/05/27 08:39:08;;;;;;;7.97;4.78;;;;;;;25.60;100.00;95992.69;5122448;27;20031;-80
2023/05/27 08:41:34;;;;;;;5.97;5.38;;;;;;;25.39;100.00;96000.19;5121462;27;20106;-76
2023/05/27 08:44:01;;;;;;;7.35;5.43;;;;;;;25.43;100.00;96003.28;5128704;27;20027;-76
2023/05/27 08:46:26;;;;;;;6.53;4.93;;;;;;;25.61;100.00;95988.94;5121450;27;20059;-76
2023/05/27 08:48:55;;;;;;;6.72;4.72;;;;;;;25.98;100.00;95978.00;5128668;27;20027;-77
2023/05/27 08:51:21;;;;;;;7.50;4.68;;;;;;;26.67;100.00;95967.66;5120021;27;20035;-78
2023/05/27 08:53:47;;;;;;;6.50;5.18;;;;;;;26.98;100.00;95965.59;5129681;27;20676;-78
2023/05/27 08:56:15;;;;;;;5.28;4.78;;;;;;;27.08;100.00;95963.13;5124172;27;20488;-76
2023/05/27 08:58:43;;;;;;;5.22;4.63;;;;;;;27.19;100.00;95956.03;5125918;27;20032;-77
2023/05/27 09:01:09;;;;;;;4.88;4.38;;;;;;;26.75;100.00;95956.47;5121299;27;20742;-76
2023/05/27 09:03:37;;;;;;;5.30;4.80;;;;;;;26.85;100.00;95953.19;5123391;27;20076;-75
2023/05/27 09:06:04;;;;;;;6.40;4.75;;;;;;;26.32;100.00;95950.47;5120688;27;20019;-81
2023/05/27 09:08:30;;;;;;;5.93;4.43;;;;;;;26.46;100.00;95945.63;5126479;27;20503;-77
2023/05/27 09:10:56;;;;;;;6.57;5.15;;;;;;;26.58;100.00;95946.41;5121283;27;20031;-76
2023/05/27 09:13:31;;;;;;;6.72;4.47;;;;;;;26.74;100.00;95941.34;5133266;27;20032;-69
2023/05/27 09:16:03;;;;;;;5.35;4.53;;;;;;;27.57;100.00;95929.41;5118149;27;20088;-70
2023/05/27 09:18:31;;;;;;;7.38;5.15;;;;;;;27.72;100.00;95920.72;5123076;27;20507;-70
2023/05/27 09:20:57;;;;;;;4.78;4.38;;;;;;;27.22;100.00;95922.28;5115975;28;20474;-70
2023/05/27 09:23:22;;;;;;;6.70;4.60;;;;;;;26.95;100.00;95929.06;5120730;27;20024;-70
2023/05/27 09:25:49;;;;;;;9.57;5.50;;;;;;;27.05;100.00;95928.44;5121429;27;20031;-72
2023/05/27 09:28:24;;;;;;;10.60;5.13;;;;;;;26.65;100.00;95943.59;5130196;27;20023;-79
2023/05/27 09:30:59;;;;;;;;;;;;;;;26.21;100.00;95945.88;5125568;27;20399;-72
2023/05/27 09:33:26;;;;;;;5.32;4.82;;;;;;;26.40;100.00;95941.16;5129036;27;19918;-72
2023/05/27 09:35:51;;;;;;;4.95;4.30;;;;;;;27.10;100.00;95917.75;5124295;27;20079;-72
2023/05/27 09:38:17;;;;;;;5.70;4.45;;;;;;;27.44;100.00;95911.59;5131406;27;20031;-75
2023/05/27 09:40:44;;;;;;;7.50;4.75;;;;;;;27.53;100.00;95914.75;5119660;27;20028;-75
2023/05/27 09:43:14;;;;;;;7.25;4.82;;;;;;;27.81;100.00;95911.13;5120725;27;20075;-70
2023/05/27 09:45:40;;;;;;;7.88;4.60;;;;;;;27.24;100.00;95903.94;5125431;27;20412;-77
2023/05/27 09:48:07;;;;;;;7.50;5.00;;;;;;;27.05;100.00;95924.94;5125782;27;20031;-77
2023/05/27 09:50:34;;;;;;;6.88;4.78;;;;;;;26.48;100.00;95932.72;5125669;27;20028;-73
2023/05/27 09:53:01;;;;;;;4.88;4.47;;;;;;;26.65;100.00;95927.38;5124993;27;20116;-72
2023/05/27 09:55:28;;;;;;;7.50;5.20;;;;;;;27.12;100.00;95926.44;5130684;27;20026;-72
2023/05/27 09:57:54;;;;;;;4.97;4.53;;;;;;;26.96;100.00;95932.59;5124878;27;20057;-73
2023/05/27 10:00:21;;;;;;;8.30;4.28;;;;;;;27.25;100.00;95925.31;5114102;28;20076;-73
2023/05/27 10:02:48;;;;;;;10.02;4.50;;;;;;;27.23;100.00;95937.44;5137173;27;20116;-73
2023/05/27 10:05:15;;;;;;;5.25;4.50;;;;;;;27.63;100.00;95941.13;5132176;27;20015;-72
2023/05/27 10:07:46;;;;;;;7.60;4.53;;;;;;;27.33;100.00;95940.31;5126639;27;20566;-73
2023/05/27 10:10:14;;;;;;;4.63;4.32;;;;;;;27.87;100.00;95944.50;5134734;27;20034;-73
2023/05/27 10:12:41;;;;;;;7.57;4.72;;;;;;;27.42;100.00;95951.56;5141543;27;20443;-72
2023/05/27 10:15:08;;;;;;;6.00;4.43;;;;;;;27.72;100.00;95967.50;5123428;27;20040;-72
2023/05/27 10:17:47;;;;;;;7.93;4.65;;;;;;;28.03;100.00;95967.19;5125197;27;20030;-72
2023/05/27 10:20:27;;;;;;;5.40;4.20;;;;;;;28.15;100.00;95975.22;5120149;27;20074;-73
2023/05/27 10:22:52;;;;;;;4.35;3.95;;;;;;;28.05;100.00;95984.00;5123699;27;20024;-73
2023/05/27 10:25:18;;;;;;;5.90;4.43;;;;;;;27.70;100.00;95983.16;5114527;28;20023;-72
2023/05/27 10:27:47;;;;;;;4.57;4.18;;;;;;;28.36;100.00;95994.50;5117158;27;20019;-72
2023/05/27 10:30:15;;;;;;;5.00;4.50;;;;;;;28.69;100.00;95995.50;5128283;27;20028;-72
2023/05/27 10:32:59;;;;;;;5.22;4.72;;;;;;;29.36;100.00;95990.91;5101953;28;20047;-72
2023/05/27 10:35:27;;;;;;;5.83;5.00;;;;;;;28.34;100.00;95989.34;5115109;28;20027;-74
2023/05/27 10:37:53;;;;;;;9.05;4.93;;;;;;;28.80;100.00;95994.59;5133981;27;20733;-71
2023/05/27 10:40:28;;;;;;;16.55;14.00;;;;;;;28.40;100.00;95998.34;5125378;28;20034;-69
2023/05/27 10:43:01;;;;;;;6.57;5.72;;;;;;;28.33;100.00;95998.53;5125892;27;20056;-71
2023/05/27 10:45:33;;;;;;;6.63;5.10;;;;;;;28.34;100.00;95997.47;5120274;28;20019;-73
2023/05/27 10:47:59;;;;;;;5.82;4.72;;;;;;;28.27;100.00;96007.63;5131349;27;20030;-71
2023/05/27 10:50:33;;;;;;;7.35;4.53;;;;;;;28.37;100.00;96009.66;5118161;28;20024;-70
2023/05/27 10:52:59;;;;;;;8.15;5.38;;;;;;;28.81;100.00;96020.59;5125729;28;20046;-70
2023/05/27 10:55:25;;;;;;;5.88;5.30;;;;;;;29.11;100.00;96010.41;5130801;27;20020;-71
2023/05/27 10:57:51;;;;;;;34.60;31.10;;;;;;;29.27;100.00;96006.81;5113533;28;20030;-72
2023/05/27 11:00:20;;;;;;;51.53;46.45;;;;;;;29.78;100.00;96021.19;5124065;28;20111;-73
2023/05/27 11:02:46;;;;;;;15.90;14.13;;;;;;;29.73;100.00;96003.81;5114923;28;20031;-71
2023/05/27 11:05:14;;;;;;;86.88;80.22;;;;;;;29.39;100.00;96011.25;5127989;28;20022;-77
2023/05/27 11:07:40;;;;;;;19.33;17.80;;;;;;;29.58;100.00;96004.44;5120694;27;20457;-75
2023/05/27 11:10:07;;;;;;;5.03;4.57;;;;;;;29.42;100.00;96011.59;5130633;27;20032;-77
2023/05/27 11:12:33;;;;;;;4.70;4.35;;;;;;;28.80;100.00;96026.28;5130947;27;20031;-76
2023/05/27 11:14:59;;;;;;;8.07;4.75;;;;;;;29.87;100.00;96025.91;5136522;27;20113;-75
2023/05/27 11:17:28;;;;;;;6.28;4.35;;;;;;;29.86;100.00;96018.84;5122068;27;20034;-82
2023/05/27 11:19:54;;;;;;;9.48;4.43;;;;;;;29.43;100.00;96012.44;5120977;27;20023;-76
2023/05/27 11:22:20;;;;;;;7.57;4.50;;;;;;;29.96;100.00;96012.69;5115775;27;20011;-77